Time;durP1;ratioP1;P1;durP2;ratioP2;P2;SDS_P1;SDS_P2;PMS_P1;PMS_P2;Temp;Humidity;BMP_temperature;BMP_pressure;BME280_temperature;BME280_humidity;BME280_pressure;Samples;Min_cycle;Max_cycle;Signal;HPM_P1;HPM_P2
2022/06/16 00:00:45;;;;;;;7.50;3.13;;;;;;;;;;5263830;28;20019;-78
2022/06/16 00:03:17;;;;;;;8.70;3.17;;;;;;;;;;5269643;28;20047;-80
2022/06/16 00:05:48;;;;;;;5.83;2.60;;;;;;;;;;5268791;28;20123;-79
2022/06/16 00:08:19;;;;;;;9.00;3.40;;;;;;;;;;5263595;28;20013;-78
2022/06/16 00:13:40;;;;;;;7.63;2.90;;;;;;;;;;5266249;28;20025;-78
2022/06/16 00:16:12;;;;;;;8.77;3.33;;;;;;;;;;5263916;28;20025;-78
2022/06/16 00:18:43;;;;;;;4.23;2.77;;;;;;;;;;5261020;28;20021;-78
2022/06/16 00:21:14;;;;;;;5.37;2.93;;;;;;;;;;5271358;28;20032;-78
2022/06/16 00:23:46;;;;;;;9.27;3.90;;;;;;;;;;5269710;28;20017;-80
2022/06/16 00:26:18;;;;;;;8.80;3.53;;;;;;;;;;5266373;28;20028;-79
2022/06/16 00:28:50;;;;;;;5.73;3.27;;;;;;;;;;5270412;28;20021;-79
2022/06/16 00:31:22;;;;;;;11.27;3.53;;;;;;;;;;5267524;28;20479;-79
2022/06/16 00:33:54;;;;;;;5.70;3.50;;;;;;;;;;5272193;28;20713;-79
2022/06/16 00:36:25;;;;;;;7.17;3.50;;;;;;;;;;5264739;28;20115;-79
2022/06/16 00:38:56;;;;;;;7.23;3.97;;;;;;;;;;5269570;28;20017;-79
2022/06/16 00:41:27;;;;;;;5.93;3.77;;;;;;;;;;5270388;28;20024;-79
2022/06/16 00:43:59;;;;;;;7.03;3.30;;;;;;;;;;5271524;28;20016;-79
2022/06/16 00:46:31;;;;;;;6.60;4.03;;;;;;;;;;5264565;28;20032;-79
2022/06/16 00:49:05;;;;;;;5.80;3.23;;;;;;;;;;5267700;28;20447;-79
2022/06/16 00:51:47;;;;;;;8.65;3.45;;;;;;;;;;5269503;28;20027;-80
2022/06/16 00:54:24;;;;;;;7.60;3.23;;;;;;;;;;5266260;28;20105;-79
2022/06/16 00:56:56;;;;;;;8.63;4.30;;;;;;;;;;5269959;28;20032;-78
2022/06/16 00:59:27;;;;;;;6.93;3.43;;;;;;;;;;5269586;28;20032;-78
2022/06/16 01:01:59;;;;;;;8.03;3.70;;;;;;;;;;5259356;28;20055;-77
2022/06/16 01:07:23;;;;;;;6.67;3.47;;;;;;;;;;5277468;22;20041;-78
2022/06/16 01:09:55;;;;;;;6.70;3.40;;;;;;;;;;5202292;28;20045;-77
2022/06/16 01:15:31;;;;;;;6.15;3.83;;;;;;;;;;5206179;28;20038;-78
2022/06/16 01:18:18;;;;;;;6.88;3.88;;;;;;;;;;5203981;28;20354;-78
2022/06/16 01:20:54;;;;;;;6.30;3.77;;;;;;;;;;5210225;28;20025;-79
2022/06/16 01:23:43;;;;;;;8.17;3.37;;;;;;;;;;5199307;28;20093;-80
2022/06/16 01:26:40;;;;;;;6.30;3.40;;;;;;;;;;5203271;28;20075;-79
2022/06/16 01:29:17;;;;;;;11.00;3.67;;;;;;;;;;5204502;28;20037;-79
2022/06/16 01:32:07;;;;;;;7.47;3.50;;;;;;;;;;5204069;28;20041;-79
2022/06/16 01:34:38;;;;;;;7.43;3.77;;;;;;;;;;5209556;28;20080;-79
2022/06/16 01:37:21;;;;;;;6.40;3.90;;;;;;;;;;5198054;28;20030;-79
2022/06/16 01:39:57;;;;;;;9.17;4.13;;;;;;;;;;5198844;28;20058;-79
2022/06/16 01:42:32;;;;;;;7.63;4.07;;;;;;;;;;5206357;28;20026;-79
2022/06/16 01:45:13;;;;;;;7.47;4.00;;;;;;;;;;5211343;28;20018;-78
2022/06/16 01:47:48;;;;;;;6.07;4.50;;;;;;;;;;5212040;28;20163;-79
2022/06/16 01:50:30;;;;;;;12.17;4.00;;;;;;;;;;5212680;28;20473;-79
2022/06/16 01:53:07;;;;;;;7.80;4.20;;;;;;;;;;5206348;28;20064;-79
2022/06/16 01:55:46;;;;;;;13.03;5.10;;;;;;;;;;5211328;28;20468;-78
2022/06/16 01:58:22;;;;;;;6.83;3.40;;;;;;;;;;5203022;28;20022;-78
2022/06/16 02:00:55;;;;;;;13.70;4.70;;;;;;;;;;5201256;28;20037;-78
2022/06/16 02:03:31;;;;;;;9.20;4.23;;;;;;;;;;5212106;28;21315;-77
2022/06/16 02:06:23;;;;;;;5.30;3.97;;;;;;;;;;5211629;28;20464;-79
2022/06/16 02:09:00;;;;;;;7.80;4.63;;;;;;;;;;5203343;28;20607;-78
2022/06/16 02:11:33;;;;;;;10.13;4.87;;;;;;;;;;5204291;28;20029;-78
2022/06/16 02:14:17;;;;;;;7.00;4.70;;;;;;;;;;5207665;28;20124;-77
2022/06/16 02:16:49;;;;;;;6.28;4.10;;;;;;;;;;5211736;28;20025;-79
2022/06/16 02:19:22;;;;;;;7.87;5.03;;;;;;;;;;5212420;28;20046;-78
2022/06/16 02:21:54;;;;;;;9.40;4.40;;;;;;;;;;5211095;28;20112;-78
2022/06/16 02:24:27;;;;;;;5.87;4.47;;;;;;;;;;5203466;28;20566;-78
2022/06/16 02:26:59;;;;;;;11.10;4.90;;;;;;;;;;5211923;28;20025;-78
2022/06/16 02:29:37;;;;;;;6.80;4.47;;;;;;;;;;5212034;28;20415;-78
2022/06/16 02:32:14;;;;;;;5.93;4.13;;;;;;;;;;5210924;28;20026;-79
2022/06/16 02:35:08;;;;;;;8.00;4.60;;;;;;;;;;5191977;28;20682;-78
2022/06/16 02:37:39;;;;;;;9.93;4.55;;;;;;;;;;5201462;28;20065;-77
2022/06/16 02:40:29;;;;;;;8.93;4.23;;;;;;;;;;5206815;28;20041;-77
2022/06/16 02:43:00;;;;;;;6.77;4.07;;;;;;;;;;5205448;28;20032;-78
2022/06/16 02:45:37;;;;;;;10.97;4.40;;;;;;;;;;5204927;28;20049;-78
2022/06/16 02:48:08;;;;;;;7.83;4.00;;;;;;;;;;5210177;28;20034;-77
2022/06/16 02:50:44;;;;;;;10.43;4.23;;;;;;;;;;5212085;28;20670;-78
2022/06/16 02:53:31;;;;;;;8.00;4.37;;;;;;;;;;5204077;28;20018;-77
2022/06/16 02:56:06;;;;;;;7.43;4.80;;;;;;;;;;5209848;28;20048;-77
2022/06/16 02:58:39;;;;;;;8.33;3.60;;;;;;;;;;5211469;28;20029;-78
2022/06/16 03:01:11;;;;;;;6.70;3.80;;;;;;;;;;5211065;28;20038;-78
2022/06/16 03:03:59;;;;;;;7.30;4.57;;;;;;;;;;5212449;28;20468;-77
2022/06/16 03:06:30;;;;;;;6.00;4.67;;;;;;;;;;5210063;28;20527;-78
2022/06/16 03:09:02;;;;;;;12.40;4.93;;;;;;;;;;5211473;28;20093;-79
2022/06/16 03:11:34;;;;;;;7.10;3.87;;;;;;;;;;5207273;28;20065;-78
2022/06/16 03:14:05;;;;;;;6.87;3.90;;;;;;;;;;5210580;28;20010;-78
2022/06/16 03:16:38;;;;;;;9.83;4.10;;;;;;;;;;5204430;28;20130;-79
2022/06/16 03:19:09;;;;;;;9.23;5.20;;;;;;;;;;5201536;28;20053;-78
2022/06/16 03:21:40;;;;;;;7.07;4.23;;;;;;;;;;5198287;28;20030;-80
2022/06/16 03:24:11;;;;;;;9.07;4.87;;;;;;;;;;5194631;28;20037;-78
2022/06/16 03:26:43;;;;;;;8.30;4.83;;;;;;;;;;5205452;28;20033;-78
2022/06/16 03:29:14;;;;;;;7.50;3.70;;;;;;;;;;5207109;28;20041;-78
2022/06/16 03:31:45;;;;;;;10.23;4.70;;;;;;;;;;5209639;28;20548;-78
2022/06/16 03:34:16;;;;;;;8.80;4.53;;;;;;;;;;5210321;28;20048;-78
2022/06/16 03:36:48;;;;;;;8.07;4.20;;;;;;;;;;5200896;28;20037;-79
2022/06/16 03:39:19;;;;;;;8.83;5.20;;;;;;;;;;5207724;28;20014;-78
2022/06/16 03:41:50;;;;;;;9.00;4.67;;;;;;;;;;5206984;28;20536;-80
2022/06/16 03:44:22;;;;;;;7.03;4.80;;;;;;;;;;5210260;28;20034;-79
2022/06/16 03:46:53;;;;;;;7.03;5.23;;;;;;;;;;5210815;28;20037;-78
2022/06/16 03:49:24;;;;;;;7.93;4.13;;;;;;;;;;5210029;28;20018;-77
2022/06/16 03:51:55;;;;;;;7.30;4.77;;;;;;;;;;5209707;28;20052;-78
2022/06/16 03:54:26;;;;;;;8.30;4.90;;;;;;;;;;5207128;28;20026;-77
2022/06/16 03:56:58;;;;;;;7.68;4.90;;;;;;;;;;5202783;28;20022;-77
2022/06/16 03:59:29;;;;;;;9.10;5.30;;;;;;;;;;5207076;28;20072;-78
2022/06/16 04:02:00;;;;;;;8.57;5.10;;;;;;;;;;5206764;28;20033;-78
2022/06/16 04:04:31;;;;;;;9.27;5.87;;;;;;;;;;5208630;28;20026;-77
2022/06/16 04:07:03;;;;;;;10.47;4.90;;;;;;;;;;5202161;28;20453;-78
2022/06/16 04:09:34;;;;;;;12.60;6.33;;;;;;;;;;5211196;28;20092;-78
2022/06/16 04:12:05;;;;;;;9.00;5.80;;;;;;;;;;5206217;28;20029;-76
2022/06/16 04:14:37;;;;;;;8.83;5.47;;;;;;;;;;5210155;28;20029;-77
2022/06/16 04:17:08;;;;;;;8.33;5.30;;;;;;;;;;5209375;28;20109;-75
2022/06/16 04:20:25;;;;;;;8.03;6.00;;;;;;;;;;5209905;28;20021;-76
2022/06/16 04:22:31;;;;;;;9.57;5.40;;;;;;;;;;5201479;28;20033;-76
2022/06/16 04:25:02;;;;;;;11.67;6.13;;;;;;;;;;5207074;28;20037;-76
2022/06/16 04:27:34;;;;;;;9.37;6.10;;;;;;;;;;5194364;28;20044;-76
2022/06/16 04:30:05;;;;;;;7.10;5.37;;;;;;;;;;5201467;28;20022;-76
2022/06/16 04:32:37;;;;;;;10.30;5.70;;;;;;;;;;5201735;28;20029;-76
2022/06/16 04:35:08;;;;;;;7.20;5.23;;;;;;;;;;5214781;28;20389;-74
2022/06/16 04:37:39;;;;;;;10.00;5.57;;;;;;;;;;5199294;28;20026;-75
2022/06/16 04:40:10;;;;;;;11.77;5.33;;;;;;;;;;5206299;28;20092;-74
2022/06/16 04:42:42;;;;;;;11.27;5.47;;;;;;;;;;5209701;28;20030;-74
2022/06/16 04:45:13;;;;;;;9.40;5.50;;;;;;;;;;5209207;28;20334;-75
2022/06/16 04:47:44;;;;;;;11.30;5.67;;;;;;;;;;5209324;28;20006;-75
2022/06/16 04:50:18;;;;;;;17.57;7.07;;;;;;;;;;5209409;28;20048;-73
2022/06/16 04:52:50;;;;;;;8.77;5.20;;;;;;;;;;5209901;28;20036;-74
2022/06/16 04:55:21;;;;;;;11.27;5.20;;;;;;;;;;5208108;28;20029;-75
2022/06/16 04:57:54;;;;;;;9.77;5.50;;;;;;;;;;5208301;28;20022;-76
2022/06/16 05:00:25;;;;;;;7.83;5.60;;;;;;;;;;5208883;28;20053;-76
2022/06/16 05:02:57;;;;;;;7.87;5.33;;;;;;;;;;5208644;28;20068;-76
2022/06/16 05:05:28;;;;;;;14.63;6.37;;;;;;;;;;5207265;28;20022;-75
2022/06/16 05:07:59;;;;;;;10.10;6.47;;;;;;;;;;5211482;28;20093;-76
2022/06/16 05:10:30;;;;;;;14.30;6.10;;;;;;;;;;5211358;28;20018;-75
2022/06/16 05:13:01;;;;;;;9.67;6.10;;;;;;;;;;5213229;28;20483;-76
2022/06/16 05:15:33;;;;;;;12.37;6.10;;;;;;;;;;5212748;28;20026;-76
2022/06/16 05:18:04;;;;;;;10.87;5.57;;;;;;;;;;5214675;28;20018;-82
2022/06/16 05:20:36;;;;;;;8.30;6.00;;;;;;;;;;5214364;28;20026;-79
2022/06/16 05:23:07;;;;;;;8.10;5.70;;;;;;;;;;5212446;28;20025;-79
2022/06/16 05:25:39;;;;;;;8.60;5.87;;;;;;;;;;5211323;28;20088;-80
2022/06/16 05:28:11;;;;;;;10.77;6.20;;;;;;;;;;5210378;28;20485;-79
2022/06/16 05:30:42;;;;;;;10.10;5.43;;;;;;;;;;5209729;28;20022;-79
2022/06/16 05:33:13;;;;;;;9.07;6.10;;;;;;;;;;5212192;28;20187;-76
2022/06/16 05:35:54;;;;;;;11.17;5.80;;;;;;;;;;5210411;28;20024;-77
2022/06/16 05:38:25;;;;;;;10.80;5.80;;;;;;;;;;5208078;28;20049;-78
2022/06/16 05:41:07;;;;;;;10.37;6.30;;;;;;;;;;5211042;28;20030;-76
2022/06/16 05:43:38;;;;;;;10.70;6.23;;;;;;;;;;5212436;28;20096;-76
2022/06/16 05:46:14;;;;;;;14.20;7.13;;;;;;;;;;5209153;28;20133;-76
2022/06/16 05:48:45;;;;;;;9.07;4.70;;;;;;;;;;5198726;28;20033;-77
2022/06/16 05:51:16;;;;;;;10.80;5.20;;;;;;;;;;5210593;28;20029;-76
2022/06/16 05:53:48;;;;;;;14.33;5.50;;;;;;;;;;5211192;28;20022;-76
2022/06/16 05:56:19;;;;;;;10.33;5.80;;;;;;;;;;5227565;28;20029;-76
2022/06/16 05:58:50;;;;;;;7.87;4.87;;;;;;;;;;5208881;28;20029;-76
2022/06/16 06:01:21;;;;;;;9.50;5.57;;;;;;;;;;5211433;28;20022;-75
2022/06/16 06:03:52;;;;;;;13.83;4.87;;;;;;;;;;5213833;28;20535;-76
2022/06/16 06:06:24;;;;;;;6.93;4.10;;;;;;;;;;5212638;28;20033;-76
2022/06/16 06:17:25;;;;;;;12.30;4.43;;;;;;;;;;5211992;28;20026;-75
2022/06/16 06:19:57;;;;;;;8.90;4.10;;;;;;;;;;5210178;28;20022;-75
2022/06/16 06:22:28;;;;;;;9.47;3.43;;;;;;;;;;5212003;28;20018;-75
2022/06/16 06:25:00;;;;;;;10.33;4.13;;;;;;;;;;5208139;28;20029;-76
2022/06/16 06:27:35;;;;;;;7.80;4.53;;;;;;;;;;5211292;28;20404;-76
2022/06/16 06:30:11;;;;;;;6.63;3.33;;;;;;;;;;5210668;28;20030;-76
2022/06/16 06:32:42;;;;;;;6.73;3.37;;;;;;;;;;5210367;28;20026;-75
2022/06/16 06:35:15;;;;;;;6.97;3.30;;;;;;;;;;5209277;28;20040;-76
2022/06/16 06:37:47;;;;;;;9.07;3.90;;;;;;;;;;5211580;28;20392;-76
2022/06/16 06:40:21;;;;;;;5.17;2.90;;;;;;;;;;5209991;28;20037;-76
2022/06/16 06:42:52;;;;;;;5.93;3.33;;;;;;;;;;5191302;28;20040;-75
2022/06/16 06:45:23;;;;;;;7.77;3.40;;;;;;;;;;5201783;28;20101;-78
2022/06/16 06:47:55;;;;;;;8.30;3.50;;;;;;;;;;5208587;28;20388;-77
2022/06/16 06:50:28;;;;;;;7.20;2.93;;;;;;;;;;5206788;28;20541;-76
2022/06/16 06:53:00;;;;;;;11.43;2.83;;;;;;;;;;5209820;28;20048;-82
2022/06/16 06:55:31;;;;;;;6.00;3.00;;;;;;;;;;5208313;28;20021;-82
2022/06/16 06:58:04;;;;;;;6.80;2.47;;;;;;;;;;5208979;28;20021;-80
2022/06/16 07:00:35;;;;;;;5.03;2.17;;;;;;;;;;5219063;28;20061;-75
2022/06/16 07:03:06;;;;;;;5.87;2.57;;;;;;;;;;5208846;28;20033;-74
2022/06/16 07:05:37;;;;;;;5.80;2.40;;;;;;;;;;5210006;28;20052;-73
2022/06/16 07:08:09;;;;;;;7.17;1.97;;;;;;;;;;5207932;28;20053;-76
2022/06/16 07:10:40;;;;;;;6.23;2.30;;;;;;;;;;5210430;28;20627;-82
2022/06/16 07:13:11;;;;;;;4.07;1.90;;;;;;;;;;5209955;28;20049;-82
2022/06/16 07:15:42;;;;;;;5.97;2.50;;;;;;;;;;5213077;28;20017;-82
2022/06/16 07:18:13;;;;;;;6.47;2.40;;;;;;;;;;5196851;28;20026;-82
2022/06/16 07:20:47;;;;;;;6.40;1.80;;;;;;;;;;5209028;28;20604;-81
2022/06/16 07:23:21;;;;;;;7.53;2.40;;;;;;;;;;5207186;28;20022;-80
2022/06/16 07:25:52;;;;;;;6.07;2.13;;;;;;;;;;5206531;28;20080;-79
2022/06/16 07:28:23;;;;;;;5.90;2.50;;;;;;;;;;5213639;28;20093;-79
2022/06/16 07:30:54;;;;;;;6.55;2.10;;;;;;;;;;5203656;28;20137;-81
2022/06/16 07:33:26;;;;;;;4.75;2.20;;;;;;;;;;5208767;28;20058;-85
2022/06/16 07:36:00;;;;;;;9.20;2.17;;;;;;;;;;5208621;28;20027;-84
2022/06/16 07:38:31;;;;;;;3.78;1.92;;;;;;;;;;5208516;28;20017;-85
2022/06/16 07:43:53;;;;;;;3.97;2.10;;;;;;;;;;5210740;28;20021;-85
2022/06/16 07:46:25;;;;;;;4.55;2.03;;;;;;;;;;5212010;28;20037;-86
2022/06/16 07:48:56;;;;;;;5.40;2.47;;;;;;;;;;5209556;28;20436;-86
2022/06/16 07:51:27;;;;;;;8.25;2.20;;;;;;;;;;5208387;28;20057;-83
2022/06/16 07:53:58;;;;;;;4.15;2.08;;;;;;;;;;5204986;28;20021;-82
2022/06/16 07:56:30;;;;;;;6.65;2.03;;;;;;;;;;5208878;28;20026;-84
2022/06/16 07:59:01;;;;;;;6.25;2.53;;;;;;;;;;5210615;28;20033;-84
2022/06/16 08:01:32;;;;;;;7.47;2.45;;;;;;;;;;5208922;28;20076;-83
2022/06/16 08:04:06;;;;;;;7.88;2.95;;;;;;;;;;5227987;28;20488;-84
2022/06/16 08:06:38;;;;;;;7.75;2.05;;;;;;;;;;5208260;28;20443;-83
2022/06/16 08:09:10;;;;;;;9.60;2.83;;;;;;;;;;5198511;28;20042;-83
2022/06/16 08:14:32;;;;;;;5.57;2.10;;;;;;;;;;5206905;28;20030;-75
2022/06/16 08:17:04;;;;;;;5.60;2.22;;;;;;;;;;5207495;28;20022;-79
2022/06/16 08:19:37;;;;;;;5.28;1.85;;;;;;;;;;5208088;28;20018;-76
2022/06/16 08:22:08;;;;;;;5.00;1.88;;;;;;;;;;5206974;28;20465;-79
2022/06/16 08:24:40;;;;;;;5.03;1.48;;;;;;;;;;5205943;28;20044;-84
2022/06/16 08:27:11;;;;;;;4.03;1.60;;;;;;;;;;5208559;28;20029;-84
2022/06/16 08:29:43;;;;;;;6.38;2.17;;;;;;;;;;5195401;28;20384;-79
2022/06/16 08:32:15;;;;;;;7.13;2.17;;;;;;;;;;5207170;28;20061;-85
2022/06/16 08:34:47;;;;;;;4.15;1.50;;;;;;;;;;5204946;28;20057;-85
2022/06/16 08:37:21;;;;;;;6.55;2.33;;;;;;;;;;5211462;28;20488;-86
2022/06/16 08:39:52;;;;;;;4.97;1.45;;;;;;;;;;5214661;28;20013;-85
2022/06/16 08:42:27;;;;;;;4.45;1.70;;;;;;;;;;5213192;28;20018;-85
2022/06/16 08:45:13;;;;;;;6.28;1.65;;;;;;;;;;5210140;28;20026;-86
2022/06/16 08:47:55;;;;;;;4.78;2.05;;;;;;;;;;5219915;28;20018;-85
2022/06/16 08:50:45;;;;;;;7.28;1.80;;;;;;;;;;5215548;28;20028;-85
2022/06/16 08:53:16;;;;;;;6.70;1.80;;;;;;;;;;5212764;28;20048;-85
2022/06/16 08:55:54;;;;;;;5.25;1.90;;;;;;;;;;5217082;28;20092;-84
2022/06/16 08:58:44;;;;;;;5.45;1.67;;;;;;;;;;5207798;28;20013;-85
2022/06/16 09:01:15;;;;;;;6.15;2.10;;;;;;;;;;5209096;28;20029;-85
2022/06/16 09:03:47;;;;;;;8.60;2.33;;;;;;;;;;5215224;28;20014;-85
2022/06/16 09:06:25;;;;;;;6.03;1.73;;;;;;;;;;5216530;28;20300;-81
2022/06/16 09:09:14;;;;;;;7.63;2.75;;;;;;;;;;5207136;28;20496;-85
2022/06/16 09:11:46;;;;;;;6.38;2.00;;;;;;;;;;5206830;28;20385;-85
2022/06/16 09:15:10;;;;;;;6.07;2.22;;;;;;;;;;5207211;28;20022;-85
2022/06/16 09:17:23;;;;;;;6.13;1.90;;;;;;;;;;5207194;28;20108;-85
2022/06/16 09:20:00;;;;;;;5.85;2.22;;;;;;;;;;5210511;28;20538;-80
2022/06/16 09:22:34;;;;;;;3.95;1.38;;;;;;;;;;5207164;28;20030;-85
2022/06/16 09:25:11;;;;;;;6.72;1.70;;;;;;;;;;5222125;28;20041;-85
2022/06/16 09:27:47;;;;;;;10.63;2.30;;;;;;;;;;5208930;28;20018;-85
2022/06/16 09:30:21;;;;;;;5.55;2.22;;;;;;;;;;5208908;28;20032;-85
2022/06/16 09:32:59;;;;;;;3.40;1.83;;;;;;;;;;5212547;28;20040;-85
2022/06/16 09:35:45;;;;;;;8.98;2.58;;;;;;;;;;5212314;28;20025;-84
2022/06/16 09:38:32;;;;;;;7.32;2.05;;;;;;;;;;5199479;28;20025;-86
2022/06/16 09:42:32;;;;;;;6.70;2.05;;;;;;;;;;5208738;28;20457;-81
2022/06/16 09:44:03;;;;;;;6.40;2.17;;;;;;;;;;5206459;28;20065;-87
2022/06/16 09:46:37;;;;;;;6.45;2.28;;;;;;;;;;5206882;28;20400;-85
2022/06/16 09:49:12;;;;;;;4.93;1.75;;;;;;;;;;5208113;28;20037;-83
2022/06/16 09:51:58;;;;;;;8.13;2.67;;;;;;;;;;5207912;28;20018;-84
2022/06/16 09:54:31;;;;;;;6.70;2.50;;;;;;;;;;5210084;28;20499;-85
2022/06/16 09:57:15;;;;;;;7.38;2.55;;;;;;;;;;5211433;28;20117;-85
2022/06/16 09:59:46;;;;;;;;;;;;;;;;;;5207502;28;20018;-84
2022/06/16 10:02:19;;;;;;;7.60;2.45;;;;;;;;;;5213026;28;20150;-85
2022/06/16 10:04:50;;;;;;;;;;;;;;;;;;5213679;28;20017;-83
2022/06/16 10:07:26;;;;;;;5.28;2.20;;;;;;;;;;5210953;28;20323;-86
2022/06/16 10:10:06;;;;;;;7.53;2.08;;;;;;;;;;5216161;28;20018;-86
2022/06/16 10:12:54;;;;;;;8.52;2.80;;;;;;;;;;5225248;28;20048;-85
2022/06/16 10:15:35;;;;;;;6.05;2.05;;;;;;;;;;5218626;28;20104;-85
2022/06/16 10:18:06;;;;;;;8.05;2.22;;;;;;;;;;5217603;28;20639;-79
2022/06/16 10:20:38;;;;;;;6.30;2.23;;;;;;;;;;5221131;28;20017;-85
2022/06/16 10:23:09;;;;;;;8.27;2.70;;;;;;;;;;5215080;28;20072;-83
2022/06/16 10:25:46;;;;;;;6.60;2.53;;;;;;;;;;5221780;28;20052;-83
2022/06/16 10:28:17;;;;;;;7.00;2.33;;;;;;;;;;5225356;28;20040;-85
2022/06/16 10:30:48;;;;;;;3.42;2.15;;;;;;;;;;5223393;28;20029;-84
2022/06/16 10:33:20;;;;;;;5.50;2.38;;;;;;;;;;5217238;28;20021;-85
2022/06/16 10:35:56;;;;;;;6.72;2.30;;;;;;;;;;5218588;28;20063;-83
2022/06/16 10:38:32;;;;;;;8.57;2.67;;;;;;;;;;5219542;28;20058;-84
2022/06/16 10:41:05;;;;;;;5.07;2.40;;;;;;;;;;5217707;28;20028;-85
2022/06/16 10:43:39;;;;;;;7.32;2.40;;;;;;;;;;5215799;28;20050;-80
2022/06/16 10:46:13;;;;;;;6.65;1.90;;;;;;;;;;5209697;28;20033;-81
2022/06/16 10:48:50;;;;;;;5.97;2.40;;;;;;;;;;5209407;28;20028;-79
2022/06/16 10:51:23;;;;;;;6.18;2.10;;;;;;;;;;5210364;28;20534;-79
2022/06/16 10:54:00;;;;;;;7.95;2.47;;;;;;;;;;5212798;28;20018;-79
2022/06/16 10:56:31;;;;;;;5.47;1.50;;;;;;;;;;5221685;28;20030;-82
2022/06/16 10:59:04;;;;;;;4.57;2.40;;;;;;;;;;5210430;28;20374;-83
2022/06/16 11:01:44;;;;;;;8.77;2.35;;;;;;;;;;5206423;28;20464;-83
2022/06/16 11:04:20;;;;;;;7.30;2.40;;;;;;;;;;5203019;28;20018;-85
2022/06/16 11:06:53;;;;;;;9.52;3.42;;;;;;;;;;5208323;28;20026;-84
2022/06/16 11:09:25;;;;;;;5.68;2.60;;;;;;;;;;5207967;28;20053;-76
2022/06/16 11:11:58;;;;;;;6.38;2.03;;;;;;;;;;5195641;28;20024;-79
2022/06/16 11:14:40;;;;;;;6.93;2.20;;;;;;;;;;5209158;28;20029;-81
2022/06/16 11:17:19;;;;;;;5.70;2.20;;;;;;;;;;5207342;28;20018;-79
2022/06/16 11:20:03;;;;;;;2.92;1.42;;;;;;;;;;5224461;28;20010;-79
2022/06/16 11:22:38;;;;;;;4.97;1.70;;;;;;;;;;5207562;28;20128;-81
2022/06/16 11:25:21;;;;;;;6.25;2.63;;;;;;;;;;5222843;28;20041;-77
2022/06/16 11:28:22;;;;;;;6.15;2.33;;;;;;;;;;5210310;28;20014;-79
2022/06/16 11:30:56;;;;;;;4.30;2.05;;;;;;;;;;5198540;28;20073;-75
2022/06/16 11:36:30;;;;;;;7.88;2.53;;;;;;;;;;5206456;28;20038;-80
2022/06/16 11:39:10;;;;;;;4.53;2.25;;;;;;;;;;5208371;28;20047;-81
2022/06/16 11:41:44;;;;;;;5.78;1.90;;;;;;;;;;5206546;28;20026;-79
2022/06/16 11:44:15;;;;;;;4.90;1.45;;;;;;;;;;5207146;28;20026;-79
2022/06/16 11:46:54;;;;;;;4.30;2.00;;;;;;;;;;5208980;28;20110;-81
2022/06/16 11:49:28;;;;;;;4.40;1.75;;;;;;;;;;5206123;28;20747;-79
2022/06/16 11:51:59;;;;;;;6.07;2.05;;;;;;;;;;5207132;28;20392;-80
2022/06/16 11:54:49;;;;;;;7.67;2.23;;;;;;;;;;5206864;28;20020;-82
2022/06/16 11:57:31;;;;;;;9.27;2.20;;;;;;;;;;5222339;28;20273;-80
2022/06/16 12:00:02;;;;;;;7.18;2.58;;;;;;;;;;5208268;28;20410;-81
2022/06/16 12:02:40;;;;;;;6.22;2.40;;;;;;;;;;5207607;28;20025;-81
2022/06/16 12:05:21;;;;;;;3.60;1.73;;;;;;;;;;5212226;28;20661;-79
2022/06/16 12:08:00;;;;;;;12.88;2.42;;;;;;;;;;5205033;28;20133;-80
2022/06/16 12:10:45;;;;;;;5.82;1.90;;;;;;;;;;5208386;28;20469;-79
2022/06/16 12:13:16;;;;;;;6.15;2.72;;;;;;;;;;5207296;28;20040;-80
2022/06/16 12:15:56;;;;;;;6.73;2.40;;;;;;;;;;5208278;28;20018;-79
2022/06/16 12:18:38;;;;;;;7.68;2.67;;;;;;;;;;5208401;28;20351;-78
2022/06/16 12:21:13;;;;;;;5.65;1.98;;;;;;;;;;5208049;28;20080;-78
2022/06/16 12:23:53;;;;;;;6.00;2.33;;;;;;;;;;5210871;28;20918;-80
2022/06/16 12:26:27;;;;;;;6.75;2.30;;;;;;;;;;5205445;28;20225;-75
2022/06/16 12:29:08;;;;;;;4.43;2.40;;;;;;;;;;5208705;28;20105;-81
2022/06/16 12:31:42;;;;;;;9.32;2.45;;;;;;;;;;5210103;28;20020;-76
2022/06/16 12:34:13;;;;;;;8.63;2.53;;;;;;;;;;5206638;28;20380;-80
2022/06/16 12:36:48;;;;;;;7.07;2.95;;;;;;;;;;5217059;28;20264;-79
2022/06/16 12:39:29;;;;;;;5.25;2.00;;;;;;;;;;5207046;28;20261;-80
2022/06/16 12:42:06;;;;;;;6.28;2.10;;;;;;;;;;5222232;28;20156;-80
2022/06/16 12:44:40;;;;;;;5.53;2.40;;;;;;;;;;5210483;28;20079;-79
2022/06/16 12:47:22;;;;;;;8.35;2.60;;;;;;;;;;5207235;28;20029;-78
2022/06/16 12:49:56;;;;;;;8.18;2.08;;;;;;;;;;5206118;28;20018;-80
2022/06/16 12:52:31;;;;;;;4.93;2.47;;;;;;;;;;5206339;28;20017;-80
2022/06/16 12:55:09;;;;;;;7.60;2.15;;;;;;;;;;5207514;28;20512;-78
2022/06/16 12:57:45;;;;;;;6.95;2.08;;;;;;;;;;5205214;28;20017;-78
2022/06/16 13:00:18;;;;;;;4.78;1.75;;;;;;;;;;5192042;28;20670;-79
2022/06/16 13:02:52;;;;;;;11.15;2.15;;;;;;;;;;5197378;28;20021;-78
2022/06/16 13:05:23;;;;;;;5.57;2.08;;;;;;;;;;5196715;28;20038;-80
2022/06/16 13:07:56;;;;;;;4.78;2.00;;;;;;;;;;5195269;28;20036;-81
2022/06/16 13:10:33;;;;;;;7.15;2.10;;;;;;;;;;5207767;28;20396;-82
2022/06/16 13:13:04;;;;;;;5.82;2.17;;;;;;;;;;5209954;28;20546;-81
2022/06/16 13:15:43;;;;;;;4.95;2.05;;;;;;;;;;5208035;28;20022;-84
2022/06/16 13:18:16;;;;;;;6.13;2.63;;;;;;;;;;5213409;28;20136;-84
2022/06/16 13:20:50;;;;;;;7.47;2.10;;;;;;;;;;5212631;28;20023;-85
2022/06/16 13:23:28;;;;;;;7.57;1.85;;;;;;;;;;5206255;28;20036;-85
2022/06/16 13:26:18;;;;;;;7.95;2.00;;;;;;;;;;5205670;28;20378;-80
2022/06/16 13:29:05;;;;;;;4.53;2.25;;;;;;;;;;5210907;28;20104;-81
2022/06/16 13:31:41;;;;;;;6.63;2.10;;;;;;;;;;5210837;28;20057;-79
2022/06/16 13:34:13;;;;;;;5.30;2.60;;;;;;;;;;5211103;28;20503;-78
2022/06/16 13:36:44;;;;;;;6.47;1.60;;;;;;;;;;5226820;28;20026;-83
2022/06/16 13:39:34;;;;;;;6.13;1.90;;;;;;;;;;5209766;28;20073;-80
2022/06/16 13:42:41;;;;;;;7.65;1.75;;;;;;;;;;5212176;28;20287;-77
2022/06/16 13:45:12;;;;;;;4.47;1.70;;;;;;;;;;5214688;28;20104;-82
2022/06/16 13:47:44;;;;;;;6.97;2.22;;;;;;;;;;5210303;28;20014;-82
2022/06/16 13:50:20;;;;;;;8.50;2.40;;;;;;;;;;5203272;28;20312;-83
2022/06/16 13:53:11;;;;;;;3.83;1.77;;;;;;;;;;5208426;28;20022;-80
2022/06/16 13:55:44;;;;;;;14.35;2.40;;;;;;;;;;5211826;28;20029;-77
2022/06/16 13:58:21;;;;;;;5.65;2.10;;;;;;;;;;5207253;28;20109;-74
2022/06/16 14:01:11;;;;;;;25.75;3.42;;;;;;;;;;5209902;28;20381;-79
2022/06/16 14:04:05;;;;;;;5.65;1.70;;;;;;;;;;5207382;28;20018;-86
2022/06/16 14:06:38;;;;;;;3.08;1.40;;;;;;;;;;5202315;28;20069;-75
2022/06/16 14:09:13;;;;;;;7.13;1.88;;;;;;;;;;5208814;28;20194;-76
2022/06/16 14:12:11;;;;;;;4.07;1.88;;;;;;;;;;5207618;28;20025;-77
2022/06/16 14:14:55;;;;;;;6.50;1.80;;;;;;;;;;5209353;28;20036;-81
2022/06/16 14:17:26;;;;;;;4.10;1.45;;;;;;;;;;5209684;28;20144;-78
2022/06/16 14:19:59;;;;;;;5.22;1.50;;;;;;;;;;5211458;28;20387;-78
2022/06/16 14:22:34;;;;;;;4.70;1.98;;;;;;;;;;5207666;28;20609;-76
2022/06/16 14:25:20;;;;;;;10.05;1.80;;;;;;;;;;5208582;28;20025;-76
2022/06/16 14:27:52;;;;;;;3.33;1.73;;;;;;;;;;5205432;28;20034;-77
2022/06/16 14:30:27;;;;;;;5.55;2.03;;;;;;;;;;5210783;28;20029;-76
2022/06/16 14:33:02;;;;;;;6.80;2.28;;;;;;;;;;5209366;28;20399;-77
2022/06/16 14:35:35;;;;;;;5.70;2.00;;;;;;;;;;5209762;28;20352;-75
2022/06/16 14:38:16;;;;;;;4.28;1.80;;;;;;;;;;5207349;28;20611;-78
2022/06/16 14:40:51;;;;;;;8.63;2.65;;;;;;;;;;5206724;28;20424;-81
2022/06/16 14:43:26;;;;;;;6.35;1.92;;;;;;;;;;5212857;28;20392;-81
2022/06/16 14:46:03;;;;;;;7.78;2.00;;;;;;;;;;5211913;28;20484;-77
2022/06/16 14:48:36;;;;;;;7.45;2.28;;;;;;;;;;5212163;28;20043;-72
2022/06/16 14:51:14;;;;;;;4.63;2.33;;;;;;;;;;5210473;28;20029;-73
2022/06/16 14:53:50;;;;;;;5.95;2.08;;;;;;;;;;5210976;28;20014;-74
2022/06/16 14:56:22;;;;;;;6.25;2.40;;;;;;;;;;5209886;28;20428;-76
2022/06/16 14:58:53;;;;;;;4.65;1.75;;;;;;;;;;5212639;28;20033;-79
2022/06/16 15:01:27;;;;;;;6.32;2.58;;;;;;;;;;5207410;28;20087;-77
2022/06/16 15:03:59;;;;;;;7.57;2.13;;;;;;;;;;5210262;28;20029;-80
2022/06/16 15:06:35;;;;;;;6.55;2.05;;;;;;;;;;5210282;28;20152;-79
2022/06/16 15:09:09;;;;;;;6.15;2.28;;;;;;;;;;5210177;28;20708;-78
2022/06/16 15:11:41;;;;;;;5.18;1.70;;;;;;;;;;5211028;28;20029;-76
2022/06/16 15:14:14;;;;;;;5.90;1.70;;;;;;;;;;5210569;28;20010;-78
2022/06/16 15:19:50;;;;;;;6.38;1.92;;;;;;;;;;5210684;28;20026;-79
2022/06/16 15:22:24;;;;;;;6.82;1.60;;;;;;;;;;5205822;28;20022;-78
2022/06/16 15:24:57;;;;;;;5.90;1.60;;;;;;;;;;5200591;28;20029;-79
2022/06/16 15:27:36;;;;;;;3.90;2.03;;;;;;;;;;5211833;28;20030;-80
2022/06/16 15:30:21;;;;;;;5.40;2.22;;;;;;;;;;5207397;28;20340;-79
2022/06/16 15:38:34;;;;;;;7.05;1.73;;;;;;;;;;5207605;28;20034;-77
2022/06/16 15:41:19;;;;;;;5.97;2.10;;;;;;;;;;5209333;28;20071;-76
2022/06/16 15:43:52;;;;;;;7.50;2.10;;;;;;;;;;5196835;28;20084;-76
2022/06/16 15:46:23;;;;;;;8.93;2.65;;;;;;;;;;5208528;28;20121;-77
2022/06/16 15:48:56;;;;;;;6.07;1.98;;;;;;;;;;5209908;28;20101;-77
2022/06/16 15:51:27;;;;;;;6.07;1.60;;;;;;;;;;5208605;28;20025;-78
2022/06/16 15:53:59;;;;;;;7.50;2.72;;;;;;;;;;5209334;28;20488;-78
2022/06/16 15:56:34;;;;;;;4.65;1.90;;;;;;;;;;5210581;28;20022;-76
2022/06/16 15:59:09;;;;;;;4.93;1.90;;;;;;;;;;5209023;28;20495;-77
2022/06/16 16:01:44;;;;;;;6.03;1.85;;;;;;;;;;5208821;28;20108;-77
2022/06/16 16:04:16;;;;;;;3.88;2.10;;;;;;;;;;5211185;28;20024;-77